Time;durP1;ratioP1;P1;durP2;ratioP2;P2;SDS_P1;SDS_P2;PMS_P1;PMS_P2;Temp;Humidity;BMP_temperature;BMP_pressure;BME280_temperature;BME280_humidity;BME280_pressure;Samples;Min_cycle;Max_cycle;Signal;HPM_P1;HPM_P2
2023/05/03 00:00:47;;;;;;;9.57;4.80;;;;;;;;;;5154028;27;20039;-75
2023/05/03 00:03:13;;;;;;;10.20;4.82;;;;;;;;;;5153749;27;20039;-75
2023/05/03 00:05:39;;;;;;;9.32;4.30;;;;;;;;;;5154223;27;20030;-75
2023/05/03 00:08:06;;;;;;;11.55;5.05;;;;;;;;;;5131568;28;20039;-75
2023/05/03 00:10:32;;;;;;;7.88;4.75;;;;;;;;;;5153430;27;20034;-75
2023/05/03 00:12:58;;;;;;;9.75;4.55;;;;;;;;;;5153799;27;20045;-75
2023/05/03 00:15:24;;;;;;;6.55;4.60;;;;;;;;;;5114658;28;20043;-75
2023/05/03 00:17:50;;;;;;;9.98;4.45;;;;;;;;;;5124655;27;20035;-75
2023/05/03 00:20:18;;;;;;;9.40;4.70;;;;;;;;;;5117957;27;20050;-75
2023/05/03 00:22:44;;;;;;;8.75;5.32;;;;;;;;;;5149771;27;20114;-69
2023/05/03 00:25:10;;;;;;;9.18;4.80;;;;;;;;;;5132976;27;20050;-69
2023/05/03 00:27:37;;;;;;;11.82;5.63;;;;;;;;;;5157922;27;20087;-69
2023/05/03 00:30:03;;;;;;;7.68;4.88;;;;;;;;;;5157837;27;20068;-68
2023/05/03 00:32:29;;;;;;;10.25;4.95;;;;;;;;;;5122030;27;20039;-69
2023/05/03 00:34:56;;;;;;;10.27;5.32;;;;;;;;;;5157820;27;20066;-75
2023/05/03 00:37:23;;;;;;;8.73;5.03;;;;;;;;;;5142665;27;20055;-70
2023/05/03 00:39:49;;;;;;;7.93;4.78;;;;;;;;;;5157672;27;20027;-69
2023/05/03 00:42:15;;;;;;;11.80;5.65;;;;;;;;;;5157577;27;20181;-75
2023/05/03 00:44:41;;;;;;;10.30;5.43;;;;;;;;;;5157654;27;20479;-75
2023/05/03 00:47:08;;;;;;;12.18;6.13;;;;;;;;;;5157752;27;20034;-75
2023/05/03 00:49:34;;;;;;;9.95;5.32;;;;;;;;;;5157537;27;20041;-75
2023/05/03 00:52:01;;;;;;;11.73;5.38;;;;;;;;;;5157565;27;20039;-75
2023/05/03 00:54:27;;;;;;;12.02;6.00;;;;;;;;;;5157314;27;20038;-75
2023/05/03 00:56:55;;;;;;;9.82;5.05;;;;;;;;;;5133417;27;20039;-75
2023/05/03 00:59:21;;;;;;;13.48;5.93;;;;;;;;;;5150575;27;20034;-75
2023/05/03 01:01:50;;;;;;;12.27;5.30;;;;;;;;;;5154782;27;20117;-75
2023/05/03 01:04:17;;;;;;;8.50;5.35;;;;;;;;;;5155982;27;20035;-75
2023/05/03 01:06:47;;;;;;;12.10;5.60;;;;;;;;;;5138444;27;20097;-69
2023/05/03 01:09:19;;;;;;;12.77;6.03;;;;;;;;;;5156649;27;20070;-69
2023/05/03 01:11:45;;;;;;;10.73;6.32;;;;;;;;;;5153187;27;20035;-75
2023/05/03 01:14:19;;;;;;;11.57;5.75;;;;;;;;;;5135928;27;20043;-69
2023/05/03 01:17:04;;;;;;;12.57;6.15;;;;;;;;;;5139299;27;20084;-69
2023/05/03 01:19:41;;;;;;;12.40;5.85;;;;;;;;;;5138509;27;20391;-69
2023/05/03 01:22:20;;;;;;;13.13;5.97;;;;;;;;;;5127433;27;20045;-69
2023/05/03 01:24:49;;;;;;;13.38;6.10;;;;;;;;;;5121594;27;20030;-75
2023/05/03 01:27:15;;;;;;;13.93;6.03;;;;;;;;;;5153350;27;20092;-69
2023/05/03 01:29:42;;;;;;;13.00;6.50;;;;;;;;;;5145669;27;20039;-69
2023/05/03 01:32:12;;;;;;;14.07;6.40;;;;;;;;;;5155849;27;20113;-69
2023/05/03 01:34:48;;;;;;;12.82;6.05;;;;;;;;;;5137967;27;20510;-69
2023/05/03 01:37:15;;;;;;;13.82;5.82;;;;;;;;;;5156180;27;20088;-70
2023/05/03 01:39:41;;;;;;;8.52;5.97;;;;;;;;;;5138096;27;20038;-75
2023/05/03 01:42:07;;;;;;;11.52;6.05;;;;;;;;;;5156619;27;20031;-75
2023/05/03 01:44:34;;;;;;;12.02;6.75;;;;;;;;;;5137653;27;20117;-69
2023/05/03 01:47:01;;;;;;;14.90;5.88;;;;;;;;;;5137970;27;20034;-69
2023/05/03 01:49:27;;;;;;;11.93;6.07;;;;;;;;;;5141726;27;20036;-75
2023/05/03 01:51:53;;;;;;;9.68;5.60;;;;;;;;;;5156198;27;20039;-69
2023/05/03 01:54:20;;;;;;;9.23;5.30;;;;;;;;;;5137721;27;20079;-75
2023/05/03 01:56:47;;;;;;;11.27;5.85;;;;;;;;;;5156084;27;20045;-75
2023/05/03 01:59:13;;;;;;;8.88;5.70;;;;;;;;;;5156058;27;20527;-75
2023/05/03 02:01:39;;;;;;;12.48;5.78;;;;;;;;;;5154990;27;20046;-75
2023/05/03 02:04:05;;;;;;;13.48;6.05;;;;;;;;;;5146913;27;20134;-75
2023/05/03 02:06:31;;;;;;;10.13;6.20;;;;;;;;;;5138827;27;20098;-69
2023/05/03 02:08:57;;;;;;;8.95;4.80;;;;;;;;;;5155559;27;20073;-74
2023/05/03 02:11:23;;;;;;;9.38;5.57;;;;;;;;;;5155530;27;20494;-75
2023/05/03 02:13:49;;;;;;;10.82;5.78;;;;;;;;;;5135078;27;20042;-75
2023/05/03 02:16:16;;;;;;;8.32;5.30;;;;;;;;;;5125205;27;20417;-75
2023/05/03 02:18:43;;;;;;;10.02;5.30;;;;;;;;;;5136675;27;20038;-75
2023/05/03 02:21:09;;;;;;;10.77;5.63;;;;;;;;;;5155963;27;20118;-75
2023/05/03 02:23:36;;;;;;;8.38;4.80;;;;;;;;;;5123770;27;20066;-75
2023/05/03 02:26:02;;;;;;;9.93;4.80;;;;;;;;;;5117490;27;20074;-75
2023/05/03 02:28:28;;;;;;;10.60;5.00;;;;;;;;;;5147387;27;20039;-75
2023/05/03 02:30:54;;;;;;;11.25;5.55;;;;;;;;;;5134595;27;20437;-75
2023/05/03 02:33:21;;;;;;;7.95;5.03;;;;;;;;;;5118830;27;20077;-76
2023/05/03 02:35:47;;;;;;;8.32;5.05;;;;;;;;;;5155487;27;20047;-69
2023/05/03 02:38:13;;;;;;;12.02;5.75;;;;;;;;;;5136595;27;20043;-68
2023/05/03 02:40:39;;;;;;;12.25;5.50;;;;;;;;;;5116461;27;20503;-69
2023/05/03 02:43:05;;;;;;;11.73;5.78;;;;;;;;;;5136249;27;20126;-75
2023/05/03 02:45:31;;;;;;;10.60;5.57;;;;;;;;;;5135840;27;20050;-69
2023/05/03 02:47:58;;;;;;;10.02;5.47;;;;;;;;;;5155327;27;20046;-75
2023/05/03 02:50:24;;;;;;;11.48;5.75;;;;;;;;;;5154689;27;20047;-75
2023/05/03 02:52:50;;;;;;;12.50;6.10;;;;;;;;;;5136458;27;20114;-75
2023/05/03 02:55:16;;;;;;;9.05;5.40;;;;;;;;;;5122027;27;20039;-75
2023/05/03 02:57:42;;;;;;;8.63;4.47;;;;;;;;;;5108606;27;20041;-68
2023/05/03 03:00:10;;;;;;;13.02;5.70;;;;;;;;;;5136047;27;20038;-69
2023/05/03 03:02:36;;;;;;;9.77;5.78;;;;;;;;;;5135839;27;20042;-68
2023/05/03 03:05:02;;;;;;;9.32;5.13;;;;;;;;;;5154750;27;20402;-68
2023/05/03 03:07:28;;;;;;;10.57;6.07;;;;;;;;;;5154634;27;20042;-69
2023/05/03 03:09:55;;;;;;;10.73;5.55;;;;;;;;;;5136133;27;20038;-68
2023/05/03 03:12:21;;;;;;;11.23;5.50;;;;;;;;;;5125800;27;20055;-69
2023/05/03 03:14:47;;;;;;;12.32;6.15;;;;;;;;;;5147907;27;20487;-69
2023/05/03 03:17:13;;;;;;;8.98;5.65;;;;;;;;;;5143102;27;20035;-75
2023/05/03 03:19:39;;;;;;;11.82;5.53;;;;;;;;;;5154222;27;20117;-75
2023/05/03 03:22:06;;;;;;;10.63;5.47;;;;;;;;;;5136167;27;20074;-75
2023/05/03 03:24:32;;;;;;;7.68;4.90;;;;;;;;;;5154234;27;20049;-74
2023/05/03 03:26:58;;;;;;;12.05;5.60;;;;;;;;;;5139805;27;20042;-75
2023/05/03 03:29:24;;;;;;;11.05;5.80;;;;;;;;;;5124822;27;20547;-74
2023/05/03 03:31:50;;;;;;;11.95;5.90;;;;;;;;;;5114967;27;20502;-68
2023/05/03 03:34:16;;;;;;;10.55;5.70;;;;;;;;;;5124913;27;20555;-69
2023/05/03 03:36:43;;;;;;;15.27;6.53;;;;;;;;;;5133876;27;20050;-68
2023/05/03 03:39:09;;;;;;;13.68;5.68;;;;;;;;;;5115369;27;20069;-69
2023/05/03 03:41:35;;;;;;;10.40;5.85;;;;;;;;;;5147867;27;20038;-75
2023/05/03 03:44:02;;;;;;;14.30;5.90;;;;;;;;;;5131324;27;20051;-75
2023/05/03 03:46:28;;;;;;;14.15;6.38;;;;;;;;;;5146210;27;20053;-74
2023/05/03 03:48:54;;;;;;;11.15;5.75;;;;;;;;;;5136186;27;20039;-75
2023/05/03 03:51:20;;;;;;;11.63;5.85;;;;;;;;;;5136350;27;20428;-75
2023/05/03 03:53:46;;;;;;;7.80;4.65;;;;;;;;;;5120982;27;20435;-75
2023/05/03 03:56:12;;;;;;;9.40;5.95;;;;;;;;;;5114523;28;20432;-69
2023/05/03 03:58:38;;;;;;;10.40;5.88;;;;;;;;;;5147136;27;20038;-75
2023/05/03 04:01:05;;;;;;;11.48;5.82;;;;;;;;;;5151784;27;20125;-75
2023/05/03 04:03:31;;;;;;;12.55;6.38;;;;;;;;;;5146950;27;20454;-75
2023/05/03 04:05:57;;;;;;;12.50;5.93;;;;;;;;;;5152455;27;20038;-68
2023/05/03 04:08:23;;;;;;;11.07;6.55;;;;;;;;;;5120911;27;20034;-68
2023/05/03 04:10:49;;;;;;;12.48;6.05;;;;;;;;;;5135296;27;20039;-69
2023/05/03 04:13:16;;;;;;;11.70;5.93;;;;;;;;;;5154036;27;20168;-68
2023/05/03 04:15:42;;;;;;;11.60;5.85;;;;;;;;;;5138880;27;20034;-69
2023/05/03 04:18:08;;;;;;;13.93;6.35;;;;;;;;;;5153947;27;20483;-69
2023/05/03 04:20:35;;;;;;;14.38;7.40;;;;;;;;;;5135371;27;20054;-69
2023/05/03 04:23:01;;;;;;;11.05;6.05;;;;;;;;;;5101543;27;20109;-69
2023/05/03 04:25:30;;;;;;;9.48;5.80;;;;;;;;;;5153457;27;20509;-69
2023/05/03 04:27:57;;;;;;;10.18;5.50;;;;;;;;;;5135262;27;20447;-69
2023/05/03 04:30:24;;;;;;;11.18;5.53;;;;;;;;;;5118064;27;20038;-69
2023/05/03 04:32:53;;;;;;;9.95;5.47;;;;;;;;;;5120882;27;20053;-69
2023/05/03 04:35:19;;;;;;;11.77;6.10;;;;;;;;;;5134968;27;20038;-69
2023/05/03 04:37:45;;;;;;;11.98;5.95;;;;;;;;;;5153208;27;20050;-69
2023/05/03 04:40:12;;;;;;;7.45;4.60;;;;;;;;;;5153755;27;20380;-69
2023/05/03 04:42:38;;;;;;;7.72;5.00;;;;;;;;;;5117994;28;20380;-69
2023/05/03 04:45:08;;;;;;;11.52;5.32;;;;;;;;;;5120049;27;20043;-69
2023/05/03 04:47:35;;;;;;;14.20;5.60;;;;;;;;;;5153548;27;20095;-69
2023/05/03 04:50:02;;;;;;;11.18;5.32;;;;;;;;;;5133126;27;20057;-69
2023/05/03 04:52:28;;;;;;;13.93;5.60;;;;;;;;;;5122590;27;20403;-68
2023/05/03 04:54:54;;;;;;;11.45;5.50;;;;;;;;;;5134891;27;20039;-75
2023/05/03 04:57:20;;;;;;;7.30;4.82;;;;;;;;;;5133250;27;20031;-75
2023/05/03 04:59:46;;;;;;;18.00;6.28;;;;;;;;;;5126728;27;20391;-75
2023/05/03 05:02:12;;;;;;;12.23;6.47;;;;;;;;;;5134978;27;20042;-75
2023/05/03 05:04:38;;;;;;;10.15;6.82;;;;;;;;;;5143160;27;20050;-69
2023/05/03 05:07:04;;;;;;;9.57;5.90;;;;;;;;;;5142844;27;20045;-69
2023/05/03 05:09:31;;;;;;;13.45;6.38;;;;;;;;;;5156808;27;20047;-69
2023/05/03 05:11:57;;;;;;;12.60;5.85;;;;;;;;;;5156775;27;20031;-69
2023/05/03 05:14:23;;;;;;;10.52;6.30;;;;;;;;;;5124832;27;20047;-75
2023/05/03 05:16:49;;;;;;;12.82;6.40;;;;;;;;;;5137357;27;20046;-75
2023/05/03 05:19:15;;;;;;;10.20;5.97;;;;;;;;;;5126711;27;20047;-75
2023/05/03 05:21:41;;;;;;;13.35;6.30;;;;;;;;;;5103975;27;20049;-75
2023/05/03 05:24:07;;;;;;;9.80;5.82;;;;;;;;;;5156369;27;20049;-69
2023/05/03 05:26:33;;;;;;;10.57;5.60;;;;;;;;;;5142177;27;20043;-69
2023/05/03 05:28:59;;;;;;;12.65;6.32;;;;;;;;;;5138277;27;20047;-69
2023/05/03 05:31:25;;;;;;;10.90;6.03;;;;;;;;;;5156701;27;20039;-69
2023/05/03 05:33:52;;;;;;;9.18;5.93;;;;;;;;;;5137962;27;20515;-69
2023/05/03 05:36:18;;;;;;;10.88;5.88;;;;;;;;;;5137976;27;20043;-69
2023/05/03 05:38:44;;;;;;;8.68;5.75;;;;;;;;;;5141602;27;20061;-69
2023/05/03 05:41:11;;;;;;;8.80;6.03;;;;;;;;;;5137853;27;20254;-69
2023/05/03 05:43:37;;;;;;;9.88;5.80;;;;;;;;;;5142847;27;20082;-69
2023/05/03 05:46:03;;;;;;;7.95;5.50;;;;;;;;;;5140586;27;20039;-69
2023/05/03 05:48:29;;;;;;;9.27;5.20;;;;;;;;;;5144607;27;20082;-75
2023/05/03 05:50:55;;;;;;;11.18;5.90;;;;;;;;;;5120202;27;20075;-69
2023/05/03 05:53:22;;;;;;;10.43;5.57;;;;;;;;;;5156153;27;20390;-69
2023/05/03 05:55:48;;;;;;;11.23;5.53;;;;;;;;;;5154591;27;20049;-75
2023/05/03 05:58:14;;;;;;;8.88;5.03;;;;;;;;;;5135633;27;20043;-75
2023/05/03 06:00:41;;;;;;;9.80;5.10;;;;;;;;;;5136446;27;20039;-75
2023/05/03 06:03:07;;;;;;;11.15;5.00;;;;;;;;;;5122948;27;20054;-69
2023/05/03 06:05:33;;;;;;;7.15;4.28;;;;;;;;;;5125734;27;20370;-70
2023/05/03 06:07:59;;;;;;;5.47;3.60;;;;;;;;;;5134416;27;20042;-75
2023/05/03 06:10:25;;;;;;;6.47;3.25;;;;;;;;;;5120304;27;20122;-75
2023/05/03 06:12:51;;;;;;;6.88;3.97;;;;;;;;;;5137258;27;20034;-70
2023/05/03 06:15:18;;;;;;;6.40;3.47;;;;;;;;;;5148742;27;20118;-70
2023/05/03 06:17:44;;;;;;;6.72;3.28;;;;;;;;;;5129969;27;20114;-70
2023/05/03 06:20:11;;;;;;;4.65;2.90;;;;;;;;;;5116649;27;20039;-70
2023/05/03 06:22:37;;;;;;;4.80;2.50;;;;;;;;;;5146253;27;20113;-75
2023/05/03 06:25:04;;;;;;;5.65;2.53;;;;;;;;;;5137116;27;20043;-71
2023/05/03 06:27:30;;;;;;;7.00;1.92;;;;;;;;;;5146126;27;20514;-75
2023/05/03 06:29:56;;;;;;;4.10;1.90;;;;;;;;;;5136127;27;20043;-77
2023/05/03 06:32:23;;;;;;;4.30;1.70;;;;;;;;;;5155713;27;20078;-76
2023/05/03 06:34:51;;;;;;;6.03;1.75;;;;;;;;;;5105937;27;20051;-76
2023/05/03 06:37:17;;;;;;;3.58;1.50;;;;;;;;;;5130685;27;20435;-71
2023/05/03 06:39:43;;;;;;;3.33;1.60;;;;;;;;;;5146718;27;20046;-71
2023/05/03 06:42:09;;;;;;;4.60;1.75;;;;;;;;;;5136486;27;20039;-71
2023/05/03 06:44:35;;;;;;;5.30;1.60;;;;;;;;;;5136952;27;20042;-71
2023/05/03 06:47:02;;;;;;;6.25;1.80;;;;;;;;;;5102701;27;20039;-75
2023/05/03 06:49:28;;;;;;;4.93;1.98;;;;;;;;;;5099166;27;20035;-71
2023/05/03 06:51:54;;;;;;;7.63;1.83;;;;;;;;;;5130401;27;20492;-77
2023/05/03 06:54:20;;;;;;;4.22;1.58;;;;;;;;;;5155215;27;20482;-76
2023/05/03 06:56:46;;;;;;;3.55;1.45;;;;;;;;;;5155300;27;20088;-76
2023/05/03 06:59:12;;;;;;;3.20;1.55;;;;;;;;;;5135930;27;20086;-76
2023/05/03 07:01:38;;;;;;;4.65;1.40;;;;;;;;;;5153624;27;20034;-76
2023/05/03 07:04:04;;;;;;;5.38;1.92;;;;;;;;;;5154709;27;20070;-75
2023/05/03 07:06:31;;;;;;;4.22;1.60;;;;;;;;;;5155193;27;20069;-77
2023/05/03 07:08:57;;;;;;;3.38;1.48;;;;;;;;;;5136056;27;20054;-80
2023/05/03 07:11:23;;;;;;;4.88;1.35;;;;;;;;;;5136177;27;20127;-77
2023/05/03 07:13:53;;;;;;;3.78;1.10;;;;;;;;;;5136241;27;20034;-77
2023/05/03 07:16:19;;;;;;;5.35;1.02;;;;;;;;;;5134614;27;20042;-76
2023/05/03 07:18:46;;;;;;;3.25;1.00;;;;;;;;;;5106462;27;20038;-71
2023/05/03 07:21:12;;;;;;;3.58;1.00;;;;;;;;;;5136366;27;20070;-76
2023/05/03 07:23:39;;;;;;;3.00;1.10;;;;;;;;;;5115720;27;20506;-72
2023/05/03 07:26:05;;;;;;;7.53;1.00;;;;;;;;;;5110306;27;20050;-72
2023/05/03 07:28:31;;;;;;;2.72;1.00;;;;;;;;;;5135781;27;20046;-71
2023/05/03 07:30:58;;;;;;;4.78;1.23;;;;;;;;;;5143234;27;20084;-70
2023/05/03 07:33:24;;;;;;;3.40;1.08;;;;;;;;;;5150393;27;20098;-76
2023/05/03 07:35:51;;;;;;;6.00;1.30;;;;;;;;;;5140974;27;20046;-77
2023/05/03 07:38:17;;;;;;;4.00;1.33;;;;;;;;;;5129325;27;20079;-76
2023/05/03 07:40:43;;;;;;;4.63;1.25;;;;;;;;;;5133861;27;20054;-76
2023/05/03 07:43:09;;;;;;;2.78;1.00;;;;;;;;;;5115811;27;20482;-73
2023/05/03 07:45:36;;;;;;;5.15;1.40;;;;;;;;;;5126539;27;20387;-72
2023/05/03 07:48:03;;;;;;;3.60;1.40;;;;;;;;;;5133067;27;20475;-71
2023/05/03 07:50:29;;;;;;;5.40;1.40;;;;;;;;;;5123156;27;20047;-75
2023/05/03 07:52:55;;;;;;;5.20;1.42;;;;;;;;;;5136089;27;20084;-77
2023/05/03 07:55:22;;;;;;;4.18;1.30;;;;;;;;;;5130258;27;20220;-76
2023/05/03 07:57:49;;;;;;;4.50;1.20;;;;;;;;;;5127889;27;20081;-77
2023/05/03 08:00:16;;;;;;;3.05;1.15;;;;;;;;;;5131662;28;20050;-72
2023/05/03 08:02:43;;;;;;;4.05;1.50;;;;;;;;;;5152327;27;20087;-75
2023/05/03 08:05:12;;;;;;;3.53;1.00;;;;;;;;;;5133244;27;20409;-72
2023/05/03 08:07:38;;;;;;;4.57;1.10;;;;;;;;;;5148051;27;20049;-74
2023/05/03 08:10:05;;;;;;;3.15;1.30;;;;;;;;;;5153926;27;20045;-75
2023/05/03 08:12:31;;;;;;;3.47;1.00;;;;;;;;;;5154547;27;20475;-76
2023/05/03 08:14:57;;;;;;;8.75;1.00;;;;;;;;;;5135321;27;20039;-75
2023/05/03 08:17:23;;;;;;;3.90;1.02;;;;;;;;;;5125557;27;20045;-75
2023/05/03 08:19:49;;;;;;;6.00;1.30;;;;;;;;;;5154170;27;20035;-72
2023/05/03 08:22:16;;;;;;;3.65;1.00;;;;;;;;;;5153930;27;20038;-73
2023/05/03 08:24:42;;;;;;;2.85;0.88;;;;;;;;;;5134940;27;20046;-73
2023/05/03 08:27:09;;;;;;;4.00;0.90;;;;;;;;;;5139480;27;20035;-73
2023/05/03 08:29:38;;;;;;;5.45;1.00;;;;;;;;;;5153711;27;20035;-74
2023/05/03 08:32:04;;;;;;;2.70;0.90;;;;;;;;;;5115974;28;20044;-75
2023/05/03 08:34:31;;;;;;;3.38;1.17;;;;;;;;;;5126185;27;20406;-73
2023/05/03 08:36:57;;;;;;;6.93;1.10;;;;;;;;;;5136031;27;20043;-72
2023/05/03 08:39:25;;;;;;;4.85;1.10;;;;;;;;;;5120264;28;20051;-76
2023/05/03 08:41:52;;;;;;;6.57;1.13;;;;;;;;;;5117984;27;20089;-75
2023/05/03 08:44:22;;;;;;;3.80;1.10;;;;;;;;;;5136883;27;20035;-76
2023/05/03 08:46:51;;;;;;;3.97;1.20;;;;;;;;;;5136048;27;20119;-75
2023/05/03 08:49:17;;;;;;;2.50;1.33;;;;;;;;;;5130965;27;20047;-75
2023/05/03 08:51:48;;;;;;;3.90;1.08;;;;;;;;;;5127110;27;20035;-75
2023/05/03 08:54:15;;;;;;;3.45;1.02;;;;;;;;;;5133599;27;20031;-75
2023/05/03 08:56:42;;;;;;;4.63;1.10;;;;;;;;;;5125789;27;20035;-75
2023/05/03 08:59:12;;;;;;;3.40;1.10;;;;;;;;;;5122246;27;20078;-75
2023/05/03 09:01:41;;;;;;;4.60;1.20;;;;;;;;;;5135642;27;20071;-75
2023/05/03 09:04:08;;;;;;;2.30;0.90;;;;;;;;;;5136685;27;20376;-75
2023/05/03 09:06:35;;;;;;;3.10;1.10;;;;;;;;;;5136354;27;20047;-76
2023/05/03 09:09:04;;;;;;;4.03;1.23;;;;;;;;;;5106517;28;20044;-76
2023/05/03 09:11:31;;;;;;;2.75;1.10;;;;;;;;;;5133581;27;20039;-75
2023/05/03 09:14:13;;;;;;;5.20;1.10;;;;;;;;;;5126755;27;20096;-75
2023/05/03 09:16:40;;;;;;;3.67;1.10;;;;;;;;;;5134924;27;20067;-75
2023/05/03 09:19:08;;;;;;;3.38;1.10;;;;;;;;;;5137246;27;20091;-75
2023/05/03 09:21:41;;;;;;;2.33;1.00;;;;;;;;;;5133237;27;20126;-76
2023/05/03 09:24:14;;;;;;;4.32;0.95;;;;;;;;;;5117423;28;20073;-74
2023/05/03 09:26:41;;;;;;;2.70;1.00;;;;;;;;;;5133914;27;20043;-75
2023/05/03 09:29:07;;;;;;;3.78;1.00;;;;;;;;;;5130065;27;20040;-69
2023/05/03 09:31:34;;;;;;;5.07;1.10;;;;;;;;;;5115783;28;20132;-72
2023/05/03 09:34:01;;;;;;;3.70;1.02;;;;;;;;;;5122555;27;20036;-74
2023/05/03 09:36:27;;;;;;;3.45;1.10;;;;;;;;;;5136082;27;20065;-76
2023/05/03 09:38:54;;;;;;;5.32;1.00;;;;;;;;;;5145359;27;20533;-75
2023/05/03 09:41:31;;;;;;;4.90;1.10;;;;;;;;;;5138716;27;20046;-75
2023/05/03 09:44:01;;;;;;;3.83;0.95;;;;;;;;;;5122671;27;20057;-76
2023/05/03 09:46:29;;;;;;;3.28;0.95;;;;;;;;;;5156984;27;20051;-75
2023/05/03 09:48:57;;;;;;;3.88;1.10;;;;;;;;;;5138452;27;20110;-77
2023/05/03 09:51:23;;;;;;;2.63;0.98;;;;;;;;;;5129121;27;20051;-74
2023/05/03 09:53:50;;;;;;;2.60;0.95;;;;;;;;;;5150613;27;20474;-75
2023/05/03 09:56:19;;;;;;;3.33;1.10;;;;;;;;;;5145209;27;20483;-74
2023/05/03 09:58:46;;;;;;;2.70;1.00;;;;;;;;;;5158115;27;20047;-76
2023/05/03 10:01:13;;;;;;;4.28;1.10;;;;;;;;;;5146278;27;20035;-74
2023/05/03 10:03:49;;;;;;;1.77;0.88;;;;;;;;;;5125865;27;20039;-75
2023/05/03 10:06:19;;;;;;;3.70;1.20;;;;;;;;;;5141385;27;20043;-71
2023/05/03 10:08:48;;;;;;;3.65;1.27;;;;;;;;;;5117613;27;20042;-75
2023/05/03 10:11:16;;;;;;;3.55;1.10;;;;;;;;;;5151475;27;20039;-71
2023/05/03 10:13:42;;;;;;;4.35;1.20;;;;;;;;;;5155726;27;20118;-72
2023/05/03 10:16:12;;;;;;;4.05;1.00;;;;;;;;;;5141736;27;20050;-74
2023/05/03 10:18:43;;;;;;;3.10;1.25;;;;;;;;;;5123674;27;20118;-72
2023/05/03 10:21:14;;;;;;;3.92;1.00;;;;;;;;;;5137611;27;20514;-72
2023/05/03 10:23:58;;;;;;;3.17;1.05;;;;;;;;;;5155611;27;20030;-73
2023/05/03 10:26:25;;;;;;;3.17;0.93;;;;;;;;;;5136899;27;20050;-77
2023/05/03 10:28:51;;;;;;;2.85;1.10;;;;;;;;;;5119492;27;20047;-76
2023/05/03 10:31:52;;;;;;;2.65;1.10;;;;;;;;;;5135366;27;20043;-76
2023/05/03 10:34:20;;;;;;;2.65;1.10;;;;;;;;;;5040996;28;20045;-77
2023/05/03 10:36:51;;;;;;;5.50;1.30;;;;;;;;;;5133975;27;20050;-74
2023/05/03 10:39:17;;;;;;;5.72;1.10;;;;;;;;;;5119983;27;20078;-75
2023/05/03 10:41:44;;;;;;;2.58;0.98;;;;;;;;;;5155618;27;20618;-77
2023/05/03 10:44:26;;;;;;;2.88;1.10;;;;;;;;;;5123490;27;20041;-71
2023/05/03 10:46:53;;;;;;;3.70;1.30;;;;;;;;;;5132854;27;20088;-77
2023/05/03 10:49:20;;;;;;;4.05;1.35;;;;;;;;;;5146174;27;20037;-75
2023/05/03 10:51:46;;;;;;;2.90;1.25;;;;;;;;;;5123093;27;20130;-76
2023/05/03 10:54:13;;;;;;;4.53;1.38;;;;;;;;;;5116771;27;20038;-77
2023/05/03 10:56:48;;;;;;;4.95;1.40;;;;;;;;;;5116354;27;20062;-71
2023/05/03 10:59:15;;;;;;;4.45;1.88;;;;;;;;;;5149103;27;20104;-71
2023/05/03 11:01:42;;;;;;;4.53;1.42;;;;;;;;;;5110230;27;20035;-72
2023/05/03 11:04:13;;;;;;;4.95;1.40;;;;;;;;;;5136591;27;20043;-70
2023/05/03 11:06:40;;;;;;;5.45;1.60;;;;;;;;;;5155207;27;20368;-75
2023/05/03 11:09:07;;;;;;;4.35;1.60;;;;;;;;;;5155309;27;20070;-70
2023/05/03 11:11:33;;;;;;;3.95;1.63;;;;;;;;;;5136481;27;20394;-74
2023/05/03 11:13:59;;;;;;;3.97;1.50;;;;;;;;;;5156063;27;20499;-74
2023/05/03 11:16:26;;;;;;;4.72;1.55;;;;;;;;;;5119459;27;20055;-73
2023/05/03 11:18:52;;;;;;;6.03;1.70;;;;;;;;;;5124664;27;20379;-76
2023/05/03 11:21:18;;;;;;;5.43;1.70;;;;;;;;;;5140185;27;20050;-76
2023/05/03 11:23:45;;;;;;;5.47;1.65;;;;;;;;;;5119164;27;20118;-75
2023/05/03 11:26:11;;;;;;;3.17;1.70;;;;;;;;;;5141631;27;20047;-74
2023/05/03 11:28:38;;;;;;;2.30;1.50;;;;;;;;;;5152661;27;20031;-73
2023/05/03 11:31:05;;;;;;;3.75;1.73;;;;;;;;;;5136232;27;20051;-74
2023/05/03 11:33:33;;;;;;;5.50;1.70;;;;;;;;;;5121573;27;20038;-74
2023/05/03 11:36:02;;;;;;;5.07;1.42;;;;;;;;;;5154526;27;20034;-75
2023/05/03 11:38:31;;;;;;;4.80;1.67;;;;;;;;;;5119612;27;20087;-70
2023/05/03 11:40:57;;;;;;;8.60;1.70;;;;;;;;;;5142310;27;20035;-70
2023/05/03 11:43:24;;;;;;;4.07;1.50;;;;;;;;;;5154365;27;20467;-74
2023/05/03 11:45:51;;;;;;;3.05;1.63;;;;;;;;;;5139785;27;20041;-71
2023/05/03 11:48:18;;;;;;;4.53;1.63;;;;;;;;;;5141706;27;20088;-71
2023/05/03 11:50:54;;;;;;;3.85;1.50;;;;;;;;;;5134564;27;20041;-74
2023/05/03 11:53:20;;;;;;;4.07;1.55;;;;;;;;;;5154905;27;20069;-75
2023/05/03 11:55:48;;;;;;;3.28;1.60;;;;;;;;;;5152246;27;20047;-74
2023/05/03 11:58:14;;;;;;;3.35;1.60;;;;;;;;;;5142331;27;20499;-74
2023/05/03 12:00:42;;;;;;;5.88;2.17;;;;;;;;;;5135279;27;20038;-71
2023/05/03 12:03:09;;;;;;;4.50;1.60;;;;;;;;;;5135901;27;20043;-71
2023/05/03 12:05:35;;;;;;;4.22;1.80;;;;;;;;;;5135432;27;20078;-73
2023/05/03 12:08:01;;;;;;;5.93;1.73;;;;;;;;;;5135728;27;20118;-75
2023/05/03 12:10:31;;;;;;;4.50;2.00;;;;;;;;;;5144715;27;20043;-72
2023/05/03 12:13:01;;;;;;;4.90;1.77;;;;;;;;;;5130895;27;20377;-72
2023/05/03 12:15:31;;;;;;;3.05;1.50;;;;;;;;;;5145716;27;20057;-72
2023/05/03 12:17:58;;;;;;;4.88;1.92;;;;;;;;;;5131837;27;20046;-74
2023/05/03 12:20:24;;;;;;;6.60;1.80;;;;;;;;;;5135167;27;20057;-75
2023/05/03 12:22:52;;;;;;;4.68;1.65;;;;;;;;;;5157946;27;20042;-74
2023/05/03 12:25:18;;;;;;;3.08;1.70;;;;;;;;;;5139789;27;20495;-74
2023/05/03 12:27:45;;;;;;;8.50;1.95;;;;;;;;;;5146089;27;20039;-75
2023/05/03 12:30:11;;;;;;;4.90;1.58;;;;;;;;;;5141180;27;20076;-71
2023/05/03 12:32:37;;;;;;;3.65;1.55;;;;;;;;;;5158074;27;20088;-72
2023/05/03 12:35:10;;;;;;;6.88;1.67;;;;;;;;;;5140234;27;20042;-74
2023/05/03 12:37:36;;;;;;;7.00;1.55;;;;;;;;;;5158647;27;20387;-74
2023/05/03 12:40:03;;;;;;;4.68;1.80;;;;;;;;;;5136091;27;20082;-74
2023/05/03 12:42:29;;;;;;;2.70;1.60;;;;;;;;;;5136175;27;20253;-73
2023/05/03 12:44:59;;;;;;;5.80;1.70;;;;;;;;;;5122071;27;20472;-74
2023/05/03 12:47:25;;;;;;;4.82;1.70;;;;;;;;;;5130644;27;20036;-75
2023/05/03 12:49:52;;;;;;;5.07;1.95;;;;;;;;;;5127406;27;20100;-74
2023/05/03 12:52:18;;;;;;;4.10;1.80;;;;;;;;;;5136643;27;20039;-71
2023/05/03 12:54:45;;;;;;;4.28;1.80;;;;;;;;;;5136627;27;20514;-70
2023/05/03 12:57:13;;;;;;;5.60;2.03;;;;;;;;;;5104380;27;20404;-70
2023/05/03 12:59:39;;;;;;;4.80;2.00;;;;;;;;;;5135728;27;20047;-75
2023/05/03 13:02:06;;;;;;;6.05;1.83;;;;;;;;;;5136181;27;20448;-75
2023/05/03 13:04:32;;;;;;;5.03;1.90;;;;;;;;;;5137105;27;20035;-74
2023/05/03 13:06:58;;;;;;;3.50;1.83;;;;;;;;;;5131970;27;20388;-74
2023/05/03 13:09:25;;;;;;;3.55;2.00;;;;;;;;;;5121421;27;20368;-75
2023/05/03 13:11:51;;;;;;;4.80;2.00;;;;;;;;;;5128537;27;20083;-74
2023/05/03 13:14:21;;;;;;;4.03;2.10;;;;;;;;;;5129130;27;20067;-74
2023/05/03 13:16:50;;;;;;;5.45;2.30;;;;;;;;;;5125731;27;20039;-74
2023/05/03 13:19:16;;;;;;;7.53;2.42;;;;;;;;;;5108765;28;20068;-75
2023/05/03 13:21:42;;;;;;;4.80;2.30;;;;;;;;;;5093364;27;20127;-75
2023/05/03 13:24:09;;;;;;;3.03;2.10;;;;;;;;;;5130150;27;20043;-73
2023/05/03 13:26:35;;;;;;;9.27;2.97;;;;;;;;;;5116955;27;20036;-76
2023/05/03 13:29:01;;;;;;;4.35;2.22;;;;;;;;;;5125800;27;20168;-74
2023/05/03 13:31:28;;;;;;;5.32;2.40;;;;;;;;;;5134728;27;20058;-74
2023/05/03 13:33:55;;;;;;;3.95;2.60;;;;;;;;;;5136029;27;20402;-74
2023/05/03 13:36:22;;;;;;;6.30;2.88;;;;;;;;;;5134790;27;20058;-75
2023/05/03 13:38:49;;;;;;;4.50;2.67;;;;;;;;;;5096876;28;20051;-74
2023/05/03 13:41:15;;;;;;;5.38;2.50;;;;;;;;;;5128715;27;20074;-74
2023/05/03 13:43:41;;;;;;;6.78;2.75;;;;;;;;;;5133180;27;20051;-73
2023/05/03 13:46:11;;;;;;;4.40;2.70;;;;;;;;;;5126284;27;20039;-74
2023/05/03 13:48:37;;;;;;;4.50;2.65;;;;;;;;;;5130436;27;20071;-74
2023/05/03 13:51:10;;;;;;;4.50;2.60;;;;;;;;;;5125780;27;20487;-74
2023/05/03 13:53:36;;;;;;;5.90;2.70;;;;;;;;;;5114038;28;20044;-73
2023/05/03 13:56:03;;;;;;;4.28;2.85;;;;;;;;;;5115084;28;20046;-73
2023/05/03 13:58:29;;;;;;;4.28;2.63;;;;;;;;;;5110447;27;20035;-70
2023/05/03 14:00:55;;;;;;;5.95;2.80;;;;;;;;;;5129776;27;20459;-73
2023/05/03 14:03:22;;;;;;;5.10;2.75;;;;;;;;;;5130144;27;20484;-70
2023/05/03 14:05:48;;;;;;;5.43;3.03;;;;;;;;;;5135264;27;20042;-71
2023/05/03 14:08:15;;;;;;;6.85;3.13;;;;;;;;;;5133606;27;20053;-71
2023/05/03 14:10:42;;;;;;;4.60;3.00;;;;;;;;;;5123378;27;20047;-70
2023/05/03 14:13:08;;;;;;;5.22;2.72;;;;;;;;;;5127482;27;20036;-72
2023/05/03 14:15:38;;;;;;;5.15;3.10;;;;;;;;;;5096473;28;20043;-70
2023/05/03 14:18:04;;;;;;;6.97;2.70;;;;;;;;;;5128482;27;20046;-70
2023/05/03 14:20:32;;;;;;;6.10;3.17;;;;;;;;;;5123441;27;20035;-70
2023/05/03 14:22:58;;;;;;;7.20;3.00;;;;;;;;;;5132777;27;20047;-72
2023/05/03 14:25:25;;;;;;;5.40;2.95;;;;;;;;;;5096544;28;20093;-70
2023/05/03 14:27:51;;;;;;;6.70;2.78;;;;;;;;;;5114444;28;20079;-69
2023/05/03 14:30:17;;;;;;;7.72;3.08;;;;;;;;;;5133959;27;20436;-73
2023/05/03 14:32:43;;;;;;;4.72;3.03;;;;;;;;;;5133496;27;20118;-72
2023/05/03 14:35:10;;;;;;;5.20;2.90;;;;;;;;;;5130206;27;20031;-71
2023/05/03 14:37:36;;;;;;;4.07;2.90;;;;;;;;;;5123716;27;20042;-70